Time;durP1;ratioP1;P1;durP2;ratioP2;P2;SDS_P1;SDS_P2;PMS_P1;PMS_P2;Temp;Humidity;BMP_temperature;BMP_pressure;BME280_temperature;BME280_humidity;BME280_pressure;Samples;Min_cycle;Max_cycle;Signal;HPM_P1;HPM_P2
2021/03/09 00:00:55;;;;;;;6.78;3.47;;;;;;;17.75;60.45;101826.91;4893404;29;20037;-66
2021/03/09 00:03:20;;;;;;;6.28;3.50;;;;;;;17.74;60.28;101825.25;4893148;29;20128;-66
2021/03/09 00:05:47;;;;;;;6.10;3.42;;;;;;;17.75;60.41;101834.84;4885601;29;20059;-66
2021/03/09 00:08:13;;;;;;;7.47;3.80;;;;;;;17.74;60.51;101829.72;4893154;29;20052;-66
2021/03/09 00:10:39;;;;;;;5.47;3.70;;;;;;;17.72;60.53;101824.56;4893184;29;20048;-66
2021/03/09 00:13:04;;;;;;;5.35;3.10;;;;;;;17.73;60.60;101823.56;4884690;29;20041;-66
2021/03/09 00:15:30;;;;;;;6.07;3.28;;;;;;;17.72;60.57;101821.09;4877261;29;20483;-66
2021/03/09 00:17:55;;;;;;;5.57;3.05;;;;;;;17.71;60.51;101819.44;4892945;29;21012;-66
2021/03/09 00:20:21;;;;;;;5.95;3.13;;;;;;;17.70;60.59;101820.41;4868006;29;20472;-66
2021/03/09 00:22:46;;;;;;;6.40;3.45;;;;;;;17.70;60.53;101813.28;4876885;29;20551;-67
2021/03/09 00:25:12;;;;;;;6.07;3.20;;;;;;;17.69;60.51;101803.66;4881214;29;20048;-66
2021/03/09 00:27:37;;;;;;;4.95;3.03;;;;;;;17.69;60.41;101797.53;4897788;29;20142;-66
2021/03/09 00:30:03;;;;;;;7.50;2.90;;;;;;;17.68;60.15;101796.69;4895946;29;20025;-67
2021/03/09 00:32:29;;;;;;;4.72;3.10;;;;;;;17.68;60.13;101796.69;4893968;29;20131;-66
2021/03/09 00:34:54;;;;;;;4.68;2.80;;;;;;;17.68;60.13;101799.34;4860605;29;20041;-66
2021/03/09 00:37:20;;;;;;;4.88;3.20;;;;;;;17.67;60.08;101800.28;4891891;29;20037;-66
2021/03/09 00:39:45;;;;;;;6.65;3.17;;;;;;;17.67;60.17;101800.28;4872791;29;20052;-66
2021/03/09 00:42:11;;;;;;;3.88;2.92;;;;;;;17.66;60.23;101801.28;4889293;29;20033;-66
2021/03/09 00:44:36;;;;;;;5.15;2.80;;;;;;;17.66;60.00;101806.59;4873881;29;20564;-66
2021/03/09 00:47:02;;;;;;;6.78;3.28;;;;;;;17.65;59.88;101812.88;4882202;29;20397;-66
2021/03/09 00:49:27;;;;;;;4.95;2.85;;;;;;;17.65;60.19;101812.88;4892289;29;20073;-66
2021/03/09 00:51:53;;;;;;;5.22;2.80;;;;;;;17.64;59.82;101811.22;4892634;29;20042;-66
2021/03/09 00:54:18;;;;;;;4.93;2.80;;;;;;;17.63;59.74;101817.53;4892300;29;20487;-66
2021/03/09 00:56:44;;;;;;;5.07;3.10;;;;;;;17.63;60.02;101815.69;4892012;29;20499;-66
2021/03/09 00:59:09;;;;;;;6.05;3.00;;;;;;;17.62;60.04;101816.69;4892118;29;20037;-66
2021/03/09 01:01:35;;;;;;;5.03;3.22;;;;;;;17.62;59.76;101818.50;4876231;29;20044;-66
2021/03/09 01:04:00;;;;;;;4.03;3.00;;;;;;;17.62;60.16;101815.84;4880469;29;20166;-67
2021/03/09 01:06:26;;;;;;;6.32;3.20;;;;;;;17.62;60.03;101810.56;4891476;29;20088;-66
2021/03/09 01:08:51;;;;;;;4.90;2.78;;;;;;;17.61;60.05;101806.25;4892914;29;20041;-66
2021/03/09 01:11:17;;;;;;;4.82;2.53;;;;;;;17.60;59.71;101804.56;4879978;29;20069;-67
2021/03/09 01:13:43;;;;;;;4.47;2.50;;;;;;;17.60;59.73;101808.06;4892832;29;20032;-66
2021/03/09 01:16:08;;;;;;;3.88;2.47;;;;;;;17.60;59.86;101808.06;4875150;29;20396;-66
2021/03/09 01:18:34;;;;;;;5.35;2.83;;;;;;;17.60;59.46;101810.72;4887684;29;20426;-66
2021/03/09 01:20:59;;;;;;;4.40;2.80;;;;;;;17.60;59.90;101815.19;4870044;29;20421;-67
2021/03/09 01:23:25;;;;;;;5.28;2.83;;;;;;;17.59;59.57;101814.38;4874506;29;20497;-66
2021/03/09 01:25:50;;;;;;;4.63;2.60;;;;;;;17.59;59.67;101816.19;4873763;29;20484;-66
2021/03/09 01:28:16;;;;;;;3.38;2.58;;;;;;;17.59;59.81;101821.50;4892974;29;20528;-66
2021/03/09 01:30:41;;;;;;;3.97;2.67;;;;;;;17.58;59.56;101814.53;4887648;29;20080;-66
2021/03/09 01:33:08;;;;;;;3.83;2.30;;;;;;;17.59;59.66;101821.50;4874136;29;20040;-66
2021/03/09 01:35:33;;;;;;;6.05;2.78;;;;;;;17.57;59.42;101810.22;4882485;29;20047;-66
2021/03/09 01:37:59;;;;;;;4.15;2.58;;;;;;;17.57;59.65;101802.25;4893069;29;20041;-66
2021/03/09 01:40:25;;;;;;;4.65;2.90;;;;;;;17.57;59.52;101808.38;4878619;29;20049;-66
2021/03/09 01:42:51;;;;;;;3.58;2.35;;;;;;;17.56;59.37;101805.91;4892096;29;20047;-66
2021/03/09 01:45:17;;;;;;;3.83;2.30;;;;;;;17.55;59.85;101804.22;4880739;29;20045;-66
2021/03/09 01:47:45;;;;;;;3.70;2.28;;;;;;;17.56;59.83;101798.75;4868403;29;20100;-66
2021/03/09 01:50:12;;;;;;;4.50;2.58;;;;;;;17.55;59.55;101789.16;4884657;29;20034;-66
2021/03/09 01:52:40;;;;;;;3.90;2.45;;;;;;;17.56;59.68;101800.59;4890694;29;20033;-66
2021/03/09 01:55:10;;;;;;;5.47;2.65;;;;;;;17.54;59.34;101805.22;4875163;29;20044;-66
2021/03/09 01:57:37;;;;;;;4.18;2.20;;;;;;;17.55;59.26;101794.44;4890678;29;20037;-66
2021/03/09 02:00:04;;;;;;;3.90;2.40;;;;;;;17.55;59.52;101804.22;4863473;29;20047;-66
2021/03/09 02:02:30;;;;;;;5.22;2.05;;;;;;;17.54;59.61;101797.28;4891797;29;20543;-66
2021/03/09 02:04:56;;;;;;;3.42;2.33;;;;;;;17.53;59.46;101796.44;4890090;29;20048;-68
2021/03/09 02:07:21;;;;;;;3.05;2.13;;;;;;;17.53;59.15;101790.31;4880498;29;20048;-68
2021/03/09 02:09:47;;;;;;;4.47;2.30;;;;;;;17.53;59.18;101782.34;4856928;29;20544;-68
2021/03/09 02:12:33;;;;;;;4.45;2.63;;;;;;;17.51;59.16;101786.94;4867723;29;20518;-66
2021/03/09 02:15:08;;;;;;;3.92;2.30;;;;;;;17.51;58.97;101779.81;4895632;29;20024;-65
2021/03/09 02:17:39;;;;;;;5.05;2.03;;;;;;;17.52;59.36;101778.88;4890413;29;20041;-66
2021/03/09 02:20:10;;;;;;;4.18;2.20;;;;;;;17.50;59.20;101786.13;4890338;29;20109;-66
2021/03/09 02:22:57;;;;;;;2.60;1.88;;;;;;;17.50;59.40;101790.59;4898900;29;20115;-65
2021/03/09 02:25:50;;;;;;;3.95;2.28;;;;;;;17.48;59.29;101789.94;4890564;29;20031;-66
2021/03/09 02:28:25;;;;;;;4.47;2.10;;;;;;;17.49;59.14;101778.31;4878642;29;20091;-65
2021/03/09 02:30:52;;;;;;;;;;;;;;;17.44;59.45;101781.47;4873358;29;20040;-66
2021/03/09 02:33:20;;;;;;;5.07;2.00;;;;;;;17.47;58.97;101775.00;4897912;29;19915;-66
2021/03/09 02:35:53;;;;;;;3.38;2.00;;;;;;;17.48;59.10;101779.31;4882644;29;20036;-66
2021/03/09 02:38:23;;;;;;;5.05;2.25;;;;;;;17.48;59.15;101789.94;4888971;29;20076;-65
2021/03/09 02:40:58;;;;;;;3.28;2.20;;;;;;;17.46;59.34;101779.47;4874605;29;20088;-66
2021/03/09 02:43:24;;;;;;;;;;;;;;;17.41;59.47;101776.47;4889117;29;20107;-66
2021/03/09 02:45:51;;;;;;;3.33;2.10;;;;;;;17.45;59.25;101758.41;4892336;29;19920;-66
2021/03/09 02:48:21;;;;;;;3.90;2.00;;;;;;;17.45;59.18;101769.03;4869126;29;20047;-66
2021/03/09 02:50:49;;;;;;;4.28;2.30;;;;;;;17.44;59.33;101759.41;4893869;29;20037;-66
2021/03/09 02:53:15;;;;;;;3.22;2.10;;;;;;;17.44;59.28;101762.91;4894427;29;20037;-66
2021/03/09 02:55:42;;;;;;;3.33;2.03;;;;;;;17.44;59.19;101751.47;4894233;29;20104;-67
2021/03/09 02:58:12;;;;;;;3.65;2.30;;;;;;;17.44;58.94;101744.31;4878532;29;20123;-66
2021/03/09 03:00:39;;;;;;;3.60;2.08;;;;;;;17.44;59.18;101743.50;4895067;29;20035;-66
2021/03/09 03:03:07;;;;;;;2.47;1.73;;;;;;;17.43;59.23;101740.00;4889168;29;20101;-66
2021/03/09 03:05:37;;;;;;;3.85;2.13;;;;;;;17.43;59.15;101733.88;4877904;29;20428;-66
2021/03/09 03:08:05;;;;;;;4.30;2.08;;;;;;;17.43;59.21;101728.56;4889915;29;20033;-66
2021/03/09 03:10:32;;;;;;;2.70;2.03;;;;;;;17.44;59.11;101730.22;4884610;29;20040;-66
2021/03/09 03:13:00;;;;;;;3.85;2.05;;;;;;;17.43;59.01;101720.63;4873703;29;20113;-66
2021/03/09 03:15:27;;;;;;;3.88;2.05;;;;;;;17.43;59.12;101720.63;4872411;29;20041;-67
2021/03/09 03:17:55;;;;;;;3.00;1.63;;;;;;;17.43;59.09;101710.00;4893703;29;20040;-66
2021/03/09 03:20:22;;;;;;;3.08;2.00;;;;;;;17.42;58.96;101701.22;4893973;29;20050;-66
2021/03/09 03:22:49;;;;;;;3.72;2.00;;;;;;;17.42;59.49;101703.03;4893371;29;20036;-66
2021/03/09 03:25:16;;;;;;;3.97;1.85;;;;;;;17.42;59.09;101711.00;4882017;29;20087;-66
2021/03/09 03:27:43;;;;;;;3.92;1.83;;;;;;;17.42;59.05;101708.34;4885529;29;20135;-66
2021/03/09 03:30:11;;;;;;;3.30;2.08;;;;;;;17.41;59.16;101693.44;4889609;29;20036;-67
2021/03/09 03:32:37;;;;;;;3.65;2.10;;;;;;;17.40;58.96;101700.56;4895226;29;20210;-66
2021/03/09 03:35:06;;;;;;;3.63;2.00;;;;;;;17.41;59.06;101698.72;4892697;29;20479;-66
2021/03/09 03:37:32;;;;;;;3.67;2.00;;;;;;;17.40;58.95;101694.41;4875008;29;20044;-67
2021/03/09 03:39:57;;;;;;;2.95;1.60;;;;;;;17.41;58.85;101696.06;4878668;29;20083;-65
2021/03/09 03:42:24;;;;;;;3.63;1.90;;;;;;;17.40;59.15;101700.56;4888311;29;20132;-65
2021/03/09 03:44:49;;;;;;;3.72;1.98;;;;;;;17.40;59.13;101695.25;4876498;29;20119;-65
2021/03/09 03:47:15;;;;;;;3.60;1.90;;;;;;;17.39;58.99;101695.41;4877179;29;20531;-66
2021/03/09 03:49:40;;;;;;;2.45;1.73;;;;;;;17.39;58.91;101698.91;4874957;29;20044;-66
2021/03/09 03:52:19;;;;;;;3.17;1.70;;;;;;;17.39;59.05;101703.38;4873301;29;20231;-65
2021/03/09 03:54:51;;;;;;;3.70;1.70;;;;;;;17.39;58.76;101706.03;4888579;29;20033;-66
2021/03/09 03:57:46;;;;;;;2.25;1.60;;;;;;;17.37;58.83;101711.50;4885709;29;20089;-66
2021/03/09 04:00:13;;;;;;;2.95;1.80;;;;;;;17.39;59.16;101708.69;4882426;29;20413;-66
2021/03/09 04:02:42;;;;;;;3.58;2.15;;;;;;;17.38;58.84;101696.41;4887485;29;20110;-66
2021/03/09 04:05:10;;;;;;;2.65;1.70;;;;;;;17.38;59.25;101696.41;4884839;29;20092;-66
2021/03/09 04:07:38;;;;;;;2.30;1.60;;;;;;;17.38;59.19;101691.94;4860400;29;20048;-66
2021/03/09 04:10:04;;;;;;;2.53;1.60;;;;;;;17.38;58.91;101697.22;4889793;29;20040;-66
2021/03/09 04:12:30;;;;;;;3.28;1.80;;;;;;;17.36;59.11;101694.75;4891648;29;20086;-66
2021/03/09 04:14:58;;;;;;;3.08;2.20;;;;;;;17.36;58.67;101708.00;4893881;29;20500;-66
2021/03/09 04:17:25;;;;;;;3.00;1.67;;;;;;;17.36;59.03;101702.69;4875114;29;20041;-65
2021/03/09 04:19:53;;;;;;;3.00;1.65;;;;;;;17.36;59.09;101705.34;4888599;29;20093;-65
2021/03/09 04:22:19;;;;;;;2.47;1.55;;;;;;;17.35;59.01;101698.34;4889320;29;20036;-66
2021/03/09 04:24:46;;;;;;;3.72;2.00;;;;;;;17.36;58.98;101691.25;4892904;29;20044;-66
2021/03/09 04:27:23;;;;;;;2.90;1.70;;;;;;;17.37;58.83;101692.94;4892555;29;20043;-65
2021/03/09 04:29:58;;;;;;;3.65;1.88;;;;;;;17.35;59.12;101692.22;4886246;29;20032;-66
2021/03/09 04:32:25;;;;;;;3.15;1.77;;;;;;;17.35;58.96;101697.53;4892762;29;20048;-65
2021/03/09 04:34:51;;;;;;;3.33;1.70;;;;;;;17.36;59.11;101702.69;4889206;29;20041;-66
2021/03/09 04:37:18;;;;;;;2.65;1.65;;;;;;;17.34;58.89;101691.41;4886598;29;20063;-66
2021/03/09 04:39:44;;;;;;;3.47;1.73;;;;;;;17.34;58.83;101686.09;4868893;29;20039;-66
2021/03/09 04:42:11;;;;;;;3.15;1.80;;;;;;;17.34;58.95;101680.78;4886228;29;20124;-66
2021/03/09 04:44:37;;;;;;;2.35;1.50;;;;;;;17.33;58.86;101687.09;4891599;29;20082;-66
2021/03/09 04:47:03;;;;;;;2.95;1.90;;;;;;;17.33;59.04;101684.44;4890618;29;20033;-67
2021/03/09 04:49:32;;;;;;;2.80;1.67;;;;;;;17.33;58.82;101679.13;4890702;29;20068;-66
2021/03/09 04:51:57;;;;;;;2.65;1.52;;;;;;;17.32;58.84;101674.81;4877910;29;20084;-66
2021/03/09 04:54:24;;;;;;;2.17;1.73;;;;;;;17.32;58.76;101668.69;4875756;29;20044;-66
2021/03/09 04:56:50;;;;;;;2.55;1.70;;;;;;;17.33;59.20;101673.81;4871825;29;20043;-66
2021/03/09 04:59:15;;;;;;;3.20;1.63;;;;;;;17.32;58.89;101664.22;4889218;29;20033;-66
2021/03/09 05:01:41;;;;;;;1.70;1.40;;;;;;;17.32;58.75;101661.56;4893603;29;20036;-65
2021/03/09 05:04:06;;;;;;;2.83;1.70;;;;;;;17.32;58.88;101655.44;4862477;29;20045;-67
2021/03/09 05:06:32;;;;;;;2.63;1.73;;;;;;;17.31;58.81;101659.06;4884422;29;20035;-66
2021/03/09 05:08:57;;;;;;;1.90;1.40;;;;;;;17.31;58.71;101659.91;4871844;29;20048;-65
2021/03/09 05:11:23;;;;;;;2.40;1.58;;;;;;;17.30;58.71;101644.97;4856695;29;20089;-66
2021/03/09 05:13:48;;;;;;;2.10;1.60;;;;;;;17.29;58.76;101651.28;4872584;29;20037;-67
2021/03/09 05:16:14;;;;;;;3.67;1.70;;;;;;;17.30;58.83;101639.69;4871559;29;20105;-66
2021/03/09 05:18:39;;;;;;;2.53;1.45;;;;;;;17.30;58.80;101638.84;4873072;29;20045;-65
2021/03/09 05:21:05;;;;;;;2.72;2.00;;;;;;;17.29;58.77;101632.72;4870100;29;20041;-66
2021/03/09 05:23:30;;;;;;;2.35;1.58;;;;;;;17.30;58.70;101644.16;4859929;29;20044;-65
2021/03/09 05:25:56;;;;;;;2.08;1.40;;;;;;;17.28;58.92;101631.06;4870284;29;20044;-65
2021/03/09 05:28:21;;;;;;;3.10;1.65;;;;;;;17.28;59.09;101628.41;4872732;29;20033;-65
2021/03/09 05:30:47;;;;;;;2.78;1.52;;;;;;;17.29;59.12;101634.53;4874848;29;20172;-66
2021/03/09 05:33:12;;;;;;;2.65;1.63;;;;;;;17.28;58.72;101638.19;4870984;29;20065;-66
2021/03/09 05:35:38;;;;;;;2.58;1.58;;;;;;;17.27;58.70;101632.06;4873131;29;20036;-66
2021/03/09 05:38:03;;;;;;;1.88;1.40;;;;;;;17.27;58.90;101631.22;4879916;29;20096;-66
2021/03/09 05:40:29;;;;;;;2.50;1.70;;;;;;;17.28;58.71;101636.38;4870762;29;20037;-66
2021/03/09 05:42:54;;;;;;;1.70;1.33;;;;;;;17.27;58.89;101631.22;4870622;29;20041;-65
2021/03/09 05:45:21;;;;;;;2.17;1.48;;;;;;;17.28;58.76;101623.09;4871276;29;20928;-66
2021/03/09 05:47:47;;;;;;;2.83;1.60;;;;;;;17.27;58.78;101623.28;4875786;29;20112;-66
2021/03/09 05:50:15;;;;;;;2.10;1.50;;;;;;;17.27;58.65;101620.63;4875493;29;20041;-66
2021/03/09 05:52:41;;;;;;;2.63;1.58;;;;;;;17.27;58.69;101620.63;4870162;29;20042;-66
2021/03/09 05:55:11;;;;;;;1.70;1.45;;;;;;;17.26;58.65;101622.44;4870002;29;20489;-67
2021/03/09 05:57:37;;;;;;;2.20;1.60;;;;;;;17.26;58.91;101616.31;4875839;29;20049;-66
2021/03/09 06:00:05;;;;;;;2.50;1.50;;;;;;;17.24;58.87;101611.16;4860893;29;20049;-66
2021/03/09 06:02:30;;;;;;;3.13;1.50;;;;;;;17.25;58.75;101604.88;4874099;29;20035;-66
2021/03/09 06:04:56;;;;;;;2.85;1.70;;;;;;;17.25;58.82;101596.09;4849065;29;20533;-66
2021/03/09 06:07:22;;;;;;;2.40;1.60;;;;;;;17.23;58.84;101585.66;4872471;29;20033;-66
2021/03/09 06:09:48;;;;;;;2.75;1.80;;;;;;;17.24;58.72;101576.69;4871174;29;20489;-66
2021/03/09 06:12:21;;;;;;;2.58;1.50;;;;;;;17.24;58.89;101578.53;4885612;29;20056;-66
2021/03/09 06:14:56;;;;;;;2.00;1.38;;;;;;;17.22;58.62;101576.03;4876414;29;20037;-66
2021/03/09 06:17:26;;;;;;;2.15;1.67;;;;;;;17.22;59.16;101573.38;4890843;29;20033;-66
2021/03/09 06:19:51;;;;;;;2.47;1.60;;;;;;;17.23;59.03;101577.69;4882893;29;20067;-66
2021/03/09 06:22:18;;;;;;;2.22;1.40;;;;;;;17.23;59.07;101569.75;4895610;29;20067;-66
2021/03/09 06:24:45;;;;;;;2.45;1.58;;;;;;;17.24;59.14;101575.88;4895619;29;20072;-66
2021/03/09 06:27:37;;;;;;;1.95;1.42;;;;;;;17.21;59.24;101578.84;4884890;29;20136;-66
2021/03/09 06:30:07;;;;;;;2.45;1.50;;;;;;;17.23;59.18;101571.56;4873034;29;20041;-66
2021/03/09 06:32:40;;;;;;;2.13;1.33;;;;;;;17.22;58.90;101573.38;4888661;29;20032;-66
2021/03/09 06:35:07;;;;;;;2.90;1.60;;;;;;;17.24;58.96;101583.81;4881569;29;20047;-66
2021/03/09 06:37:32;;;;;;;2.17;1.50;;;;;;;17.24;58.77;101597.09;4895263;29;20048;-66
2021/03/09 06:40:03;;;;;;;3.13;1.70;;;;;;;17.22;58.94;101605.19;4877765;29;20547;-66
2021/03/09 06:42:39;;;;;;;2.00;1.40;;;;;;;17.21;59.00;101611.50;4885945;29;20215;-66
2021/03/09 06:45:09;;;;;;;2.25;1.60;;;;;;;17.22;58.98;101615.81;4893714;29;20499;-66
2021/03/09 06:47:41;;;;;;;3.78;1.77;;;;;;;17.23;59.14;101612.16;4880706;29;20024;-66
2021/03/09 06:50:09;;;;;;;2.22;1.40;;;;;;;17.25;59.30;101612.00;4873248;29;20165;-66
2021/03/09 06:52:35;;;;;;;2.88;1.70;;;;;;;17.25;59.38;101607.53;4892166;29;20025;-66
2021/03/09 06:55:01;;;;;;;2.15;1.42;;;;;;;17.27;59.57;101602.88;4875437;29;20044;-67
2021/03/09 06:57:26;;;;;;;2.72;1.60;;;;;;;17.29;59.71;101608.03;4884628;29;20044;-68
2021/03/09 06:59:54;;;;;;;2.30;1.60;;;;;;;17.31;59.92;101603.38;4895983;29;20044;-68
2021/03/09 07:02:29;;;;;;;2.85;1.70;;;;;;;17.32;60.17;101610.34;4895642;29;20134;-68
2021/03/09 07:05:08;;;;;;;2.20;1.60;;;;;;;17.35;60.18;101605.53;4869660;29;20029;-68
2021/03/09 07:07:34;;;;;;;2.05;1.38;;;;;;;17.38;60.20;101599.09;4878851;29;20492;-68
2021/03/09 07:10:01;;;;;;;2.00;1.50;;;;;;;17.42;60.24;101599.59;4896158;29;20039;-68
2021/03/09 07:12:27;;;;;;;2.60;1.52;;;;;;;17.45;60.43;101597.44;4893098;29;20048;-68
2021/03/09 07:14:54;;;;;;;2.20;1.40;;;;;;;17.49;60.67;101606.72;4893851;29;20119;-68
2021/03/09 07:17:21;;;;;;;2.90;1.70;;;;;;;17.53;60.88;101613.38;4893311;29;20515;-68
2021/03/09 07:19:47;;;;;;;2.08;1.50;;;;;;;17.57;60.80;101617.38;4893745;29;20472;-69
2021/03/09 07:22:14;;;;;;;2.17;1.52;;;;;;;17.62;61.17;101619.53;4874661;29;20044;-68
2021/03/09 07:25:05;;;;;;;2.78;1.35;;;;;;;17.62;60.63;101615.03;4889948;29;20032;-69
2021/03/09 07:28:00;;;;;;;2.45;1.65;;;;;;;17.67;60.97;101623.38;4894739;29;20058;-66
2021/03/09 07:30:27;;;;;;;2.45;1.50;;;;;;;17.72;60.87;101630.03;4887476;29;20123;-63
2021/03/09 07:32:55;;;;;;;2.90;1.67;;;;;;;17.74;60.82;101618.25;4893945;29;20040;-61
2021/03/09 07:35:22;;;;;;;4.55;1.88;;;;;;;17.77;60.70;101603.81;4869320;29;20033;-61
2021/03/09 07:37:48;;;;;;;2.72;1.60;;;;;;;17.80;60.91;101598.16;4852551;29;20047;-62
2021/03/09 07:40:17;;;;;;;4.15;1.40;;;;;;;17.82;60.81;101599.66;4894368;29;20040;-66
2021/03/09 07:42:43;;;;;;;4.97;1.55;;;;;;;17.85;60.50;101593.22;4878137;29;20694;-61
2021/03/09 07:45:11;;;;;;;5.75;1.88;;;;;;;17.87;60.63;101591.22;4893155;29;20063;-64
2021/03/09 07:47:44;;;;;;;4.63;1.52;;;;;;;17.87;60.90;101585.91;4885902;29;20041;-64
2021/03/09 07:50:14;;;;;;;4.13;2.00;;;;;;;17.89;60.82;101583.91;4893203;29;20078;-63
2021/03/09 07:53:07;;;;;;;3.45;1.80;;;;;;;17.87;60.76;101586.75;4894152;29;20500;-65
2021/03/09 07:55:34;;;;;;;4.90;1.50;;;;;;;17.90;60.90;101575.78;4891603;29;20492;-66
2021/03/09 07:58:17;;;;;;;5.38;1.85;;;;;;;17.89;61.35;101570.63;4883886;29;20071;-68
2021/03/09 08:01:01;;;;;;;3.30;1.63;;;;;;;17.90;61.55;101554.53;4916880;29;20064;-72
2021/03/09 08:03:30;;;;;;;7.57;1.55;;;;;;;17.92;61.35;101541.09;4882637;29;20036;-72
2021/03/09 08:06:06;;;;;;;7.30;1.77;;;;;;;17.92;61.54;101533.13;4876383;29;20416;-66
2021/03/09 08:08:45;;;;;;;8.82;2.00;;;;;;;17.91;62.11;101529.66;4882168;29;20048;-67
2021/03/09 08:11:13;;;;;;;3.88;1.80;;;;;;;17.94;62.12;101523.19;4882673;29;20483;-65
2021/03/09 08:13:39;;;;;;;5.97;1.95;;;;;;;17.95;62.17;101522.19;4892765;29;20064;-70
2021/03/09 08:16:20;;;;;;;9.73;1.80;;;;;;;17.92;62.77;101515.38;4888875;29;20061;-68
2021/03/09 08:18:47;;;;;;;6.15;2.17;;;;;;;17.95;62.26;101519.53;4864720;29;20135;-69
2021/03/09 08:21:12;;;;;;;5.43;1.60;;;;;;;17.95;62.94;101520.34;4888066;29;20032;-64
2021/03/09 08:23:41;;;;;;;25.70;2.63;;;;;;;17.94;62.60;101513.38;4892158;29;20047;-70
2021/03/09 08:26:29;;;;;;;6.40;1.80;;;;;;;17.92;62.96;101512.72;4879327;29;20188;-70
2021/03/09 08:28:55;;;;;;;5.40;2.00;;;;;;;17.94;63.02;101508.09;4868299;29;20036;-69
2021/03/09 08:31:20;;;;;;;5.05;1.80;;;;;;;17.94;62.86;101509.91;4881852;29;20033;-65
2021/03/09 08:33:53;;;;;;;5.68;1.83;;;;;;;17.93;62.51;101505.59;4886195;29;20051;-65
2021/03/09 08:36:22;;;;;;;8.93;1.83;;;;;;;17.92;62.83;101502.13;4876008;29;20433;-66
2021/03/09 08:39:09;;;;;;;13.63;2.10;;;;;;;17.90;62.81;101506.78;4881411;29;20037;-66
2021/03/09 08:41:37;;;;;;;11.70;2.47;;;;;;;17.91;62.76;101505.78;4888205;29;20134;-66
2021/03/09 08:47:05;;;;;;;8.10;1.95;;;;;;;17.88;62.77;101499.97;4886405;29;20044;-66
2021/03/09 08:49:36;;;;;;;9.95;2.05;;;;;;;17.88;62.84;101511.41;4878943;29;20048;-65
2021/03/09 08:52:05;;;;;;;12.13;2.50;;;;;;;17.88;62.62;101499.97;4873303;29;20120;-70
2021/03/09 08:54:48;;;;;;;12.38;2.97;;;;;;;17.85;63.03;101517.06;4885278;29;20044;-69
2021/03/09 08:57:20;;;;;;;15.95;2.83;;;;;;;17.85;62.67;101519.72;4886429;29;20031;-67
2021/03/09 08:59:47;;;;;;;14.77;2.55;;;;;;;17.84;62.40;101515.41;4870205;29;20571;-67
2021/03/09 09:02:24;;;;;;;12.35;2.78;;;;;;;17.83;62.39;101515.56;4869372;29;20119;-67
2021/03/09 09:05:06;;;;;;;11.48;2.78;;;;;;;17.81;61.94;101513.06;4888457;29;20075;-67
2021/03/09 09:07:42;;;;;;;9.82;2.50;;;;;;;17.80;61.89;101508.75;4879073;29;20075;-67
2021/03/09 09:10:18;;;;;;;11.98;2.97;;;;;;;17.80;61.97;101503.47;4892717;29;20115;-67
2021/03/09 09:12:44;;;;;;;7.85;2.70;;;;;;;17.78;61.13;101501.97;4892661;29;20044;-67
2021/03/09 09:15:26;;;;;;;9.52;2.60;;;;;;;17.76;60.73;101499.50;4887440;29;20320;-67
2021/03/09 09:18:00;;;;;;;7.82;2.67;;;;;;;17.74;60.34;101505.97;4892317;29;20070;-67
2021/03/09 09:20:31;;;;;;;17.85;3.00;;;;;;;17.72;60.12;101498.19;4894270;29;20411;-67
2021/03/09 09:23:21;;;;;;;10.57;2.78;;;;;;;17.70;60.20;101505.47;4880445;29;20028;-67
2021/03/09 09:25:49;;;;;;;8.00;2.72;;;;;;;17.70;60.35;101494.88;4892383;29;20051;-67
2021/03/09 09:28:41;;;;;;;13.13;3.35;;;;;;;17.66;60.15;101494.31;4876932;29;20033;-67
2021/03/09 09:31:14;;;;;;;10.75;2.58;;;;;;;17.67;59.56;101497.78;4896829;29;20048;-67
2021/03/09 09:33:40;;;;;;;8.30;2.75;;;;;;;17.65;59.41;101491.84;4886951;29;20025;-65
2021/03/09 09:36:06;;;;;;;9.63;2.50;;;;;;;17.63;58.94;101494.66;4895637;29;20112;-65
2021/03/09 09:38:32;;;;;;;9.38;2.78;;;;;;;17.61;58.98;101495.81;4898461;29;20708;-65
2021/03/09 09:40:59;;;;;;;7.75;2.25;;;;;;;17.58;58.40;101485.56;4896433;29;20112;-66
2021/03/09 09:43:30;;;;;;;7.40;2.10;;;;;;;17.55;58.44;101486.72;4896417;29;20497;-66
2021/03/09 09:45:59;;;;;;;6.35;2.28;;;;;;;17.53;57.62;101479.94;4897431;29;20436;-66
2021/03/09 09:48:30;;;;;;;7.00;1.38;;;;;;;17.49;57.46;101478.56;4898414;29;20056;-66
2021/03/09 09:50:59;;;;;;;7.72;2.22;;;;;;;17.45;57.01;101482.56;4888116;29;20044;-66
2021/03/09 09:53:44;;;;;;;4.78;1.75;;;;;;;17.40;56.99;101458.38;4896181;29;20172;-70
2021/03/09 09:56:21;;;;;;;6.28;1.60;;;;;;;17.37;56.48;101448.94;4869474;29;20095;-69
2021/03/09 09:58:51;;;;;;;6.53;2.03;;;;;;;17.33;56.41;101445.75;4897062;29;20041;-69
2021/03/09 10:01:41;;;;;;;5.95;1.65;;;;;;;17.30;56.58;101445.28;4897614;29;20033;-69
2021/03/09 10:04:11;;;;;;;4.38;1.50;;;;;;;17.25;56.41;101443.13;4874868;29;20749;-69
2021/03/09 10:06:50;;;;;;;5.10;1.70;;;;;;;17.22;56.29;101453.25;4881273;29;20076;-69
2021/03/09 10:09:19;;;;;;;4.18;1.30;;;;;;;17.20;56.12;101432.19;4879106;29;20036;-69
2021/03/09 10:11:51;;;;;;;5.00;1.30;;;;;;;17.18;56.07;101439.47;4898393;29;20052;-70
2021/03/09 10:14:18;;;;;;;4.45;1.42;;;;;;;17.18;55.98;101446.59;4897695;29;20033;-67
2021/03/09 10:16:44;;;;;;;3.40;1.38;;;;;;;17.15;56.27;101438.97;4898011;24;20057;-78
2021/03/09 10:19:18;;;;;;;2.83;1.00;;;;;;;17.14;56.33;101446.09;4870743;29;20108;-78
2021/03/09 10:21:45;;;;;;;3.53;1.08;;;;;;;17.12;56.02;101449.91;4890579;29;20045;-78
2021/03/09 10:24:20;;;;;;;5.18;1.10;;;;;;;17.11;56.22;101445.59;4894369;29;20029;-78
2021/03/09 10:26:47;;;;;;;3.45;1.30;;;;;;;17.11;56.32;101445.59;4899188;29;20488;-79
2021/03/09 10:29:16;;;;;;;5.00;1.20;;;;;;;17.11;56.62;101433.19;4898529;29;20115;-79
2021/03/09 10:31:47;;;;;;;4.50;1.30;;;;;;;17.11;56.45;101427.88;4898211;29;20048;-81
2021/03/09 10:34:13;;;;;;;2.95;1.10;;;;;;;17.11;56.21;101419.94;4877472;29;20040;-80
2021/03/09 10:37:05;;;;;;;4.10;1.00;;;;;;;17.10;56.37;101422.75;4895132;29;20036;-81
2021/03/09 10:39:32;;;;;;;4.78;1.05;;;;;;;17.10;56.03;101410.31;4877557;29;20037;-81
2021/03/09 10:42:18;;;;;;;3.15;1.00;;;;;;;17.10;56.32;101407.66;4896428;29;20024;-81
2021/03/09 10:44:44;;;;;;;3.58;1.00;;;;;;;17.10;56.16;101409.50;4879555;29;20091;-81
2021/03/09 10:47:11;;;;;;;5.47;1.27;;;;;;;17.08;56.20;101404.34;4878064;29;20675;-80
2021/03/09 10:49:37;;;;;;;3.75;0.93;;;;;;;17.08;55.66;101401.72;4879577;29;20520;-81
2021/03/09 10:52:04;;;;;;;2.80;0.93;;;;;;;17.06;55.81;101401.88;4894557;29;20092;-81
2021/03/09 10:54:30;;;;;;;3.63;0.95;;;;;;;17.08;55.43;101408.81;4879849;29;20127;-81
2021/03/09 10:56:57;;;;;;;2.53;0.80;;;;;;;17.06;55.28;101401.88;4894610;29;20039;-81
2021/03/09 10:59:22;;;;;;;4.00;1.10;;;;;;;17.06;55.37;101401.03;4896066;29;20028;-81
2021/03/09 11:01:47;;;;;;;3.38;1.15;;;;;;;17.04;55.17;101406.50;4867436;29;20039;-81
2021/03/09 11:04:13;;;;;;;3.97;0.80;;;;;;;17.04;54.93;101397.72;4848808;29;20044;-80
2021/03/09 11:06:38;;;;;;;2.50;0.90;;;;;;;17.04;55.03;101395.06;4861304;29;20037;-81
2021/03/09 11:09:04;;;;;;;3.67;1.00;;;;;;;17.02;55.07;101394.41;4879194;29;20103;-81
2021/03/09 11:11:30;;;;;;;3.70;0.82;;;;;;;17.02;55.08;101379.31;4879174;29;20044;-81
2021/03/09 11:13:55;;;;;;;2.63;1.00;;;;;;;17.01;54.56;101376.84;4877660;29;20033;-79
2021/03/09 11:16:21;;;;;;;4.90;1.10;;;;;;;16.99;54.34;101376.19;4878692;29;20060;-79
2021/03/09 11:18:46;;;;;;;4.68;1.23;;;;;;;16.98;54.50;101374.53;4895835;29;20039;-79
2021/03/09 11:21:12;;;;;;;1.98;0.80;;;;;;;16.95;54.18;101373.03;4895091;29;20029;-78
2021/03/09 11:23:39;;;;;;;2.78;1.00;;;;;;;16.94;54.12;101355.47;4897156;29;20056;-76
2021/03/09 11:26:06;;;;;;;3.30;0.90;;;;;;;16.93;53.74;101356.47;4877327;29;20045;-77
2021/03/09 11:28:32;;;;;;;3.38;1.05;;;;;;;16.92;53.72;101348.69;4879083;29;20033;-74
2021/03/09 11:30:58;;;;;;;4.82;1.20;;;;;;;16.91;53.51;101360.28;4873543;29;20093;-77
2021/03/09 11:33:23;;;;;;;4.35;1.00;;;;;;;16.90;53.51;101356.00;4870156;29;20044;-74
2021/03/09 11:35:48;;;;;;;4.05;1.00;;;;;;;16.89;53.81;101349.03;4883408;29;20072;-74